Time;durP1;ratioP1;P1;durP2;ratioP2;P2;SDS_P1;SDS_P2;PMS_P1;PMS_P2;Temp;Humidity;BMP_temperature;BMP_pressure;BME280_temperature;BME280_humidity;BME280_pressure;Samples;Min_cycle;Max_cycle;Signal;HPM_P1;HPM_P2
2020/12/10 00:02:10;;;;;;;118.93;76.18;;;;;;;;;;5036868;28;20375;-82
2020/12/10 00:04:36;;;;;;;111.90;76.38;;;;;;;;;;5054713;28;20453;-82
2020/12/10 00:07:02;;;;;;;114.03;76.45;;;;;;;;;;5036836;28;20921;-82
2020/12/10 00:09:28;;;;;;;119.38;77.70;;;;;;;;;;5054368;28;20415;-82
2020/12/10 00:11:54;;;;;;;122.50;79.00;;;;;;;;;;5036845;28;21026;-82
2020/12/10 00:14:20;;;;;;;123.70;80.20;;;;;;;;;;5037151;28;20371;-82
2020/12/10 00:16:47;;;;;;;127.22;81.07;;;;;;;;;;5036973;28;20795;-81
2020/12/10 00:19:13;;;;;;;124.53;80.63;;;;;;;;;;5054570;28;20370;-82
2020/12/10 00:21:39;;;;;;;127.43;80.75;;;;;;;;;;5036979;28;20464;-82
2020/12/10 00:24:05;;;;;;;132.80;83.57;;;;;;;;;;5054909;28;20387;-82
2020/12/10 00:26:31;;;;;;;132.27;83.65;;;;;;;;;;5036710;28;20419;-82
2020/12/10 00:28:57;;;;;;;129.30;82.57;;;;;;;;;;5035907;28;20410;-85
2020/12/10 00:31:23;;;;;;;135.73;85.90;;;;;;;;;;5054408;28;20368;-82
2020/12/10 00:33:49;;;;;;;139.57;86.72;;;;;;;;;;5036208;28;20379;-82
2020/12/10 00:36:16;;;;;;;129.80;84.60;;;;;;;;;;5035989;28;20458;-83
2020/12/10 00:38:42;;;;;;;130.48;83.47;;;;;;;;;;5036682;28;20372;-82
2020/12/10 00:41:08;;;;;;;139.30;88.38;;;;;;;;;;5036549;28;20371;-82
2020/12/10 00:43:34;;;;;;;144.27;88.68;;;;;;;;;;5036365;28;20399;-82
2020/12/10 00:46:04;;;;;;;139.20;88.13;;;;;;;;;;5036538;28;20378;-83
2020/12/10 00:48:30;;;;;;;138.10;87.70;;;;;;;;;;5054314;28;20422;-82
2020/12/10 00:50:56;;;;;;;136.07;85.65;;;;;;;;;;5036298;28;20868;-82
2020/12/10 00:53:22;;;;;;;135.73;85.75;;;;;;;;;;5053562;28;20378;-82
2020/12/10 00:55:48;;;;;;;136.77;87.43;;;;;;;;;;5035531;28;20387;-81
2020/12/10 00:58:14;;;;;;;141.82;87.43;;;;;;;;;;5035843;28;20380;-82
2020/12/10 01:00:40;;;;;;;134.57;86.13;;;;;;;;;;5053238;28;20356;-81
2020/12/10 01:03:06;;;;;;;142.70;90.28;;;;;;;;;;5053568;28;20352;-81
2020/12/10 01:05:32;;;;;;;146.48;89.82;;;;;;;;;;5035879;28;20374;-82
2020/12/10 01:07:58;;;;;;;145.57;89.28;;;;;;;;;;5036112;28;20395;-82
2020/12/10 01:10:24;;;;;;;145.05;89.30;;;;;;;;;;5034256;28;20441;-82
2020/12/10 01:12:50;;;;;;;137.88;88.10;;;;;;;;;;5035868;28;20378;-81
2020/12/10 01:15:17;;;;;;;139.07;89.03;;;;;;;;;;5053604;28;20379;-82
2020/12/10 01:17:43;;;;;;;156.73;93.20;;;;;;;;;;5035929;28;20368;-82
2020/12/10 01:20:10;;;;;;;156.75;95.20;;;;;;;;;;5035365;28;20456;-82
2020/12/10 01:22:36;;;;;;;158.27;96.13;;;;;;;;;;5035746;28;20371;-82
2020/12/10 01:25:03;;;;;;;156.77;96.82;;;;;;;;;;5035187;28;20375;-83
2020/12/10 01:27:29;;;;;;;161.82;98.60;;;;;;;;;;5034741;28;20379;-82
2020/12/10 01:29:55;;;;;;;166.30;100.28;;;;;;;;;;5034764;28;20368;-81
2020/12/10 01:32:22;;;;;;;168.18;98.97;;;;;;;;;;5035520;28;20892;-82
2020/12/10 01:34:48;;;;;;;172.05;104.25;;;;;;;;;;5035422;28;20364;-82
2020/12/10 01:37:14;;;;;;;176.07;104.60;;;;;;;;;;5035081;28;20383;-82
2020/12/10 01:39:40;;;;;;;182.90;106.70;;;;;;;;;;5052132;28;20356;-82
2020/12/10 01:42:06;;;;;;;170.38;101.28;;;;;;;;;;5035027;28;20769;-82
2020/12/10 01:44:32;;;;;;;180.70;104.47;;;;;;;;;;5035211;28;20368;-81
2020/12/10 01:46:58;;;;;;;184.73;105.50;;;;;;;;;;5034663;28;20431;-82
2020/12/10 01:49:25;;;;;;;182.48;105.00;;;;;;;;;;5052440;28;20402;-81
2020/12/10 01:51:51;;;;;;;176.38;102.47;;;;;;;;;;5035226;28;20368;-82
2020/12/10 01:54:17;;;;;;;182.88;102.35;;;;;;;;;;5035042;28;20391;-81
2020/12/10 01:56:43;;;;;;;174.15;101.22;;;;;;;;;;5052782;28;20862;-81
2020/12/10 01:59:12;;;;;;;180.18;101.03;;;;;;;;;;5034367;28;20463;-81
2020/12/10 02:01:38;;;;;;;186.43;102.63;;;;;;;;;;5052081;28;20699;-82
2020/12/10 02:04:23;;;;;;;188.25;103.50;;;;;;;;;;5034724;28;20371;-81
2020/12/10 02:06:49;;;;;;;187.65;103.90;;;;;;;;;;5034571;28;20360;-82
2020/12/10 02:09:15;;;;;;;178.50;99.93;;;;;;;;;;5034126;28;20384;-81
2020/12/10 02:11:41;;;;;;;182.00;98.68;;;;;;;;;;5034719;28;20992;-82
2020/12/10 02:14:07;;;;;;;176.63;99.70;;;;;;;;;;5052318;28;21212;-82
2020/12/10 02:16:33;;;;;;;174.77;99.57;;;;;;;;;;5052694;28;20368;-81
2020/12/10 02:18:59;;;;;;;177.65;99.50;;;;;;;;;;5034150;28;20431;-81
2020/12/10 02:21:25;;;;;;;170.95;97.50;;;;;;;;;;5033799;28;20836;-82
2020/12/10 02:23:55;;;;;;;179.05;97.70;;;;;;;;;;5034639;28;20375;-82
2020/12/10 02:26:24;;;;;;;175.45;97.20;;;;;;;;;;5052030;28;20781;-82
2020/12/10 02:28:50;;;;;;;165.52;94.47;;;;;;;;;;5034236;28;20483;-82
2020/12/10 02:31:23;;;;;;;175.90;96.93;;;;;;;;;;5034322;28;20374;-82
2020/12/10 02:33:49;;;;;;;168.05;93.72;;;;;;;;;;5034305;28;20857;-81
2020/12/10 02:36:15;;;;;;;167.13;94.47;;;;;;;;;;5034200;28;20433;-82
2020/12/10 02:38:41;;;;;;;173.85;96.90;;;;;;;;;;5051980;28;20392;-82
2020/12/10 02:41:08;;;;;;;165.20;93.60;;;;;;;;;;5033805;28;20439;-81
2020/12/10 02:43:34;;;;;;;165.88;91.63;;;;;;;;;;5051814;28;20826;-82
2020/12/10 02:46:00;;;;;;;174.73;94.90;;;;;;;;;;5034083;28;20364;-82
2020/12/10 02:48:26;;;;;;;171.50;96.83;;;;;;;;;;5051841;28;20450;-82
2020/12/10 02:50:52;;;;;;;171.20;96.30;;;;;;;;;;5033637;28;20375;-82
2020/12/10 02:53:18;;;;;;;159.45;91.35;;;;;;;;;;5034137;28;20367;-83
2020/12/10 02:55:44;;;;;;;166.38;94.40;;;;;;;;;;5034553;28;20734;-82
2020/12/10 02:58:10;;;;;;;162.73;94.45;;;;;;;;;;5034506;28;20444;-83
2020/12/10 03:00:36;;;;;;;174.65;95.50;;;;;;;;;;5051869;28;20356;-81
2020/12/10 03:03:02;;;;;;;170.48;94.45;;;;;;;;;;5051520;28;20399;-82
2020/12/10 03:05:28;;;;;;;172.35;95.32;;;;;;;;;;5033922;28;20356;-82
2020/12/10 03:07:54;;;;;;;176.77;96.35;;;;;;;;;;5033681;28;20766;-81
2020/12/10 03:10:20;;;;;;;171.77;93.93;;;;;;;;;;5051317;28;20851;-82
2020/12/10 03:12:46;;;;;;;169.60;96.28;;;;;;;;;;5051785;28;20367;-83
2020/12/10 03:15:12;;;;;;;174.40;97.68;;;;;;;;;;5034329;28;20375;-83
2020/12/10 03:17:38;;;;;;;171.40;95.03;;;;;;;;;;5052284;28;20352;-83
2020/12/10 03:20:05;;;;;;;169.82;94.88;;;;;;;;;;5033930;28;20380;-82
2020/12/10 03:22:31;;;;;;;176.98;97.45;;;;;;;;;;5033903;28;20368;-83
2020/12/10 03:24:57;;;;;;;173.75;94.55;;;;;;;;;;5051229;28;20482;-82
2020/12/10 03:27:23;;;;;;;164.85;91.50;;;;;;;;;;5033065;28;20463;-82
2020/12/10 03:29:49;;;;;;;167.45;92.35;;;;;;;;;;5033001;28;20364;-81
2020/12/10 03:32:15;;;;;;;166.23;92.60;;;;;;;;;;5033174;28;20393;-82
2020/12/10 03:34:41;;;;;;;170.13;95.30;;;;;;;;;;5050280;28;20374;-82
2020/12/10 03:37:07;;;;;;;169.38;93.45;;;;;;;;;;5033068;28;20397;-82
2020/12/10 03:39:33;;;;;;;169.98;92.95;;;;;;;;;;5051041;28;20359;-82
2020/12/10 03:42:00;;;;;;;174.05;96.68;;;;;;;;;;5033493;28;20375;-82
2020/12/10 03:44:26;;;;;;;175.93;95.57;;;;;;;;;;5033741;28;20761;-82
2020/12/10 03:46:52;;;;;;;177.75;96.95;;;;;;;;;;5033757;28;20368;-82
2020/12/10 03:49:18;;;;;;;173.05;95.43;;;;;;;;;;5033410;28;20396;-82
2020/12/10 03:51:45;;;;;;;180.05;98.32;;;;;;;;;;5033463;28;20734;-81
2020/12/10 03:54:11;;;;;;;175.32;98.22;;;;;;;;;;5050934;28;20451;-82
2020/12/10 03:56:37;;;;;;;182.30;98.30;;;;;;;;;;5033056;28;20372;-83
2020/12/10 03:59:04;;;;;;;176.50;96.72;;;;;;;;;;5032900;28;20394;-81
2020/12/10 04:01:30;;;;;;;174.07;96.80;;;;;;;;;;5032934;28;20446;-82
2020/12/10 04:03:56;;;;;;;168.15;94.70;;;;;;;;;;5050788;28;20355;-81
2020/12/10 04:06:23;;;;;;;174.55;93.60;;;;;;;;;;5032702;28;20367;-82
2020/12/10 04:08:49;;;;;;;173.93;93.15;;;;;;;;;;5050557;28;20502;-82
2020/12/10 04:11:15;;;;;;;181.88;97.03;;;;;;;;;;5033073;28;20384;-81
2020/12/10 04:13:41;;;;;;;177.65;96.82;;;;;;;;;;5050483;28;20912;-81
2020/12/10 04:16:08;;;;;;;186.85;98.13;;;;;;;;;;5033013;28;20368;-82
2020/12/10 04:18:37;;;;;;;174.90;95.32;;;;;;;;;;5050793;28;20455;-82
2020/12/10 04:21:03;;;;;;;187.40;98.35;;;;;;;;;;5050141;28;20360;-82
2020/12/10 04:23:29;;;;;;;185.75;99.32;;;;;;;;;;5050269;28;20360;-82
2020/12/10 04:25:55;;;;;;;176.50;96.97;;;;;;;;;;5033017;28;20375;-81
2020/12/10 04:28:22;;;;;;;186.25;99.45;;;;;;;;;;5032729;28;20400;-82
2020/12/10 04:30:48;;;;;;;197.18;101.25;;;;;;;;;;5032764;28;20372;-82
2020/12/10 04:33:14;;;;;;;204.50;103.97;;;;;;;;;;5033079;28;20414;-82
2020/12/10 04:35:41;;;;;;;199.38;103.15;;;;;;;;;;5050725;28;20356;-82
2020/12/10 04:38:07;;;;;;;200.80;102.80;;;;;;;;;;5032621;28;20381;-82
2020/12/10 04:40:34;;;;;;;184.57;100.00;;;;;;;;;;5032297;28;20972;-83
2020/12/10 04:43:04;;;;;;;199.05;103.15;;;;;;;;;;5032184;28;20368;-82
2020/12/10 04:45:30;;;;;;;194.38;103.32;;;;;;;;;;5034530;28;20368;-83
2020/12/10 04:47:57;;;;;;;196.95;100.38;;;;;;;;;;5054034;28;20395;-82
2020/12/10 04:50:25;;;;;;;190.27;98.60;;;;;;;;;;5036248;28;20714;-82
2020/12/10 04:52:54;;;;;;;181.52;96.85;;;;;;;;;;5036352;28;20421;-82
2020/12/10 04:55:20;;;;;;;179.35;95.50;;;;;;;;;;5035463;28;20436;-83
2020/12/10 04:57:47;;;;;;;175.47;95.30;;;;;;;;;;5053425;28;20430;-83
2020/12/10 05:00:15;;;;;;;179.57;95.55;;;;;;;;;;5036349;28;20421;-83
2020/12/10 05:02:45;;;;;;;175.70;93.43;;;;;;;;;;5054568;28;20395;-82
2020/12/10 05:05:30;;;;;;;178.60;96.28;;;;;;;;;;5054017;28;20431;-82
2020/12/10 05:07:57;;;;;;;175.57;95.35;;;;;;;;;;5035443;28;20404;-82
2020/12/10 05:10:23;;;;;;;184.23;97.03;;;;;;;;;;5035398;28;20483;-82
2020/12/10 05:12:50;;;;;;;179.32;95.35;;;;;;;;;;5053795;28;20853;-83
2020/12/10 05:15:32;;;;;;;176.47;95.17;;;;;;;;;;5036626;28;20510;-83
2020/12/10 05:18:07;;;;;;;168.75;93.22;;;;;;;;;;5036487;28;20368;-83
2020/12/10 05:20:39;;;;;;;170.20;92.70;;;;;;;;;;5035708;28;20427;-82
2020/12/10 05:23:07;;;;;;;173.70;93.75;;;;;;;;;;5053762;28;20372;-85
2020/12/10 05:25:44;;;;;;;186.03;97.23;;;;;;;;;;5036380;28;20727;-82
2020/12/10 05:28:10;;;;;;;181.75;96.45;;;;;;;;;;5036760;28;20395;-82
2020/12/10 05:30:36;;;;;;;174.93;94.30;;;;;;;;;;5054027;28;20368;-82
2020/12/10 05:33:09;;;;;;;170.77;92.40;;;;;;;;;;5036182;28;20368;-82
2020/12/10 05:35:35;;;;;;;178.77;96.38;;;;;;;;;;5053866;28;20425;-82
2020/12/10 05:38:06;;;;;;;185.77;96.95;;;;;;;;;;5053661;28;20364;-82
2020/12/10 05:40:32;;;;;;;172.38;94.40;;;;;;;;;;5035554;28;20401;-82
2020/12/10 05:43:05;;;;;;;179.30;94.53;;;;;;;;;;5053744;28;20403;-83
2020/12/10 05:45:31;;;;;;;178.52;94.95;;;;;;;;;;5036057;28;20378;-83
2020/12/10 05:47:58;;;;;;;178.98;94.30;;;;;;;;;;5035388;28;20445;-82
2020/12/10 05:50:25;;;;;;;184.57;96.32;;;;;;;;;;5034930;28;20455;-83
2020/12/10 05:53:00;;;;;;;173.23;93.60;;;;;;;;;;5051266;28;20404;-87
2020/12/10 05:55:28;;;;;;;174.60;91.68;;;;;;;;;;5056312;28;20401;-85
2020/12/10 05:57:54;;;;;;;172.70;90.35;;;;;;;;;;5055743;28;20403;-84
2020/12/10 06:00:41;;;;;;;171.10;90.95;;;;;;;;;;5045375;28;20445;-85
2020/12/10 06:03:07;;;;;;;166.63;88.13;;;;;;;;;;5055882;28;20362;-85
2020/12/10 06:05:33;;;;;;;165.48;87.80;;;;;;;;;;5073855;28;20449;-84
2020/12/10 06:08:00;;;;;;;165.55;88.00;;;;;;;;;;5056345;28;20417;-85
2020/12/10 06:10:26;;;;;;;163.15;86.97;;;;;;;;;;5055543;28;20370;-85
2020/12/10 06:12:52;;;;;;;159.77;87.07;;;;;;;;;;5055652;28;20378;-85
2020/12/10 06:15:28;;;;;;;167.05;88.35;;;;;;;;;;5055649;28;20362;-86
2020/12/10 06:18:01;;;;;;;168.95;88.28;;;;;;;;;;5056094;28;20388;-86
2020/12/10 06:20:33;;;;;;;170.98;88.70;;;;;;;;;;5055482;28;20401;-85
2020/12/10 06:23:34;;;;;;;173.80;89.55;;;;;;;;;;5055307;28;21134;-85
2020/12/10 06:26:21;;;;;;;159.73;85.90;;;;;;;;;;5055396;28;20373;-85
2020/12/10 06:28:47;;;;;;;166.57;87.17;;;;;;;;;;5037922;28;20457;-85
2020/12/10 06:31:13;;;;;;;166.35;87.53;;;;;;;;;;5072624;28;20389;-84
2020/12/10 06:33:43;;;;;;;173.20;89.57;;;;;;;;;;5055602;28;20453;-86
2020/12/10 06:36:18;;;;;;;165.53;86.13;;;;;;;;;;5055168;28;20481;-84
2020/12/10 06:38:44;;;;;;;163.75;86.20;;;;;;;;;;5055413;28;20388;-85
2020/12/10 06:41:10;;;;;;;162.57;85.53;;;;;;;;;;5055993;28;20406;-84
2020/12/10 06:43:39;;;;;;;171.13;87.90;;;;;;;;;;5055438;28;20454;-84
2020/12/10 06:46:06;;;;;;;164.90;85.65;;;;;;;;;;5055181;28;20375;-84
2020/12/10 06:48:41;;;;;;;159.38;85.07;;;;;;;;;;5055480;28;20390;-84
2020/12/10 06:51:15;;;;;;;170.52;86.63;;;;;;;;;;5072603;28;20752;-83
2020/12/10 06:54:01;;;;;;;170.25;87.63;;;;;;;;;;5055067;28;20415;-84
2020/12/10 06:56:28;;;;;;;172.07;88.03;;;;;;;;;;5054662;28;20447;-84
2020/12/10 06:59:00;;;;;;;171.90;86.90;;;;;;;;;;5054984;28;20909;-86
2020/12/10 07:01:31;;;;;;;178.18;92.45;;;;;;;;;;5054920;28;20370;-85
2020/12/10 07:04:42;;;;;;;176.90;90.47;;;;;;;;;;5072873;28;20361;-85
2020/12/10 07:07:19;;;;;;;175.52;89.13;;;;;;;;;;5067165;28;20953;-85
2020/12/10 07:10:05;;;;;;;168.48;87.97;;;;;;;;;;5049469;28;20398;-84
2020/12/10 07:12:32;;;;;;;173.63;88.50;;;;;;;;;;5047819;28;20367;-85
2020/12/10 07:15:11;;;;;;;177.73;90.95;;;;;;;;;;5034753;28;20375;-85
2020/12/10 07:17:38;;;;;;;172.50;88.93;;;;;;;;;;5035723;28;20382;-87
2020/12/10 07:20:17;;;;;;;184.70;92.57;;;;;;;;;;5042427;28;20373;-88
2020/12/10 07:22:43;;;;;;;196.27;94.10;;;;;;;;;;5035831;28;20770;-87
2020/12/10 07:25:10;;;;;;;177.68;92.57;;;;;;;;;;5036097;28;20378;-88
2020/12/10 07:27:40;;;;;;;195.63;95.50;;;;;;;;;;5036517;28;20391;-86
2020/12/10 07:30:09;;;;;;;181.70;91.18;;;;;;;;;;5053180;28;20457;-84
2020/12/10 07:32:37;;;;;;;185.77;92.53;;;;;;;;;;5035017;28;20447;-84
2020/12/10 07:35:03;;;;;;;179.10;91.32;;;;;;;;;;5036203;28;20394;-89
2020/12/10 07:37:31;;;;;;;170.73;89.23;;;;;;;;;;5039804;28;20776;-89
2020/12/10 07:39:58;;;;;;;173.00;88.88;;;;;;;;;;5035899;28;20390;-86
2020/12/10 07:42:24;;;;;;;176.38;90.00;;;;;;;;;;5053191;28;20356;-85
2020/12/10 07:44:50;;;;;;;171.93;90.20;;;;;;;;;;5053795;28;20836;-89
2020/12/10 07:47:16;;;;;;;180.15;90.45;;;;;;;;;;5043000;28;20362;-85
2020/12/10 07:49:42;;;;;;;171.63;89.78;;;;;;;;;;5036211;28;20396;-88
2020/12/10 07:52:10;;;;;;;169.50;87.63;;;;;;;;;;5053691;28;20441;-89
2020/12/10 07:54:53;;;;;;;161.70;86.57;;;;;;;;;;5035004;28;20850;-86
2020/12/10 07:57:40;;;;;;;176.05;89.10;;;;;;;;;;5053034;28;20380;-90
2020/12/10 08:00:10;;;;;;;172.73;89.65;;;;;;;;;;5053530;28;20359;-85
2020/12/10 08:02:40;;;;;;;168.63;88.93;;;;;;;;;;5017945;28;20463;-81
2020/12/10 08:05:13;;;;;;;170.32;89.05;;;;;;;;;;5033892;28;20407;-83
2020/12/10 08:07:39;;;;;;;175.93;91.25;;;;;;;;;;5033569;28;20370;-80
2020/12/10 08:10:05;;;;;;;164.03;88.33;;;;;;;;;;5032333;28;20433;-80
2020/12/10 08:12:31;;;;;;;164.05;88.45;;;;;;;;;;5050957;28;20372;-81
2020/12/10 08:14:57;;;;;;;169.88;89.47;;;;;;;;;;5033025;28;20858;-82
2020/12/10 08:17:26;;;;;;;184.13;93.13;;;;;;;;;;5047456;28;20408;-82
2020/12/10 08:19:59;;;;;;;179.85;92.68;;;;;;;;;;5035445;28;20376;-86
2020/12/10 08:22:26;;;;;;;172.13;90.57;;;;;;;;;;5070564;28;20362;-85
2020/12/10 08:24:52;;;;;;;173.70;91.32;;;;;;;;;;5057229;28;20378;-86
2020/12/10 08:27:20;;;;;;;172.13;90.47;;;;;;;;;;5060851;28;20437;-88
2020/12/10 08:30:00;;;;;;;169.07;89.43;;;;;;;;;;5076877;28;20907;-84
2020/12/10 08:32:29;;;;;;;170.05;89.90;;;;;;;;;;5077331;28;20385;-85
2020/12/10 08:35:05;;;;;;;166.25;87.85;;;;;;;;;;5038309;28;20441;-83
2020/12/10 08:37:40;;;;;;;161.25;86.63;;;;;;;;;;5036290;28;20374;-84
2020/12/10 08:40:07;;;;;;;160.73;86.50;;;;;;;;;;5037305;28;20376;-83
2020/12/10 08:42:33;;;;;;;164.10;86.93;;;;;;;;;;5037243;28;20458;-83
2020/12/10 08:44:59;;;;;;;160.10;88.03;;;;;;;;;;5060480;28;20358;-83
2020/12/10 08:47:26;;;;;;;172.77;88.47;;;;;;;;;;5057723;28;20377;-83
2020/12/10 08:50:05;;;;;;;166.23;88.35;;;;;;;;;;5075109;28;20437;-84
2020/12/10 08:52:31;;;;;;;175.40;88.93;;;;;;;;;;5056918;28;20419;-85
2020/12/10 08:54:57;;;;;;;169.52;88.78;;;;;;;;;;5057840;28;20359;-83
2020/12/10 08:57:23;;;;;;;170.15;87.28;;;;;;;;;;5057049;28;20381;-87
2020/12/10 08:59:48;;;;;;;164.13;86.60;;;;;;;;;;5057113;28;20443;-87
2020/12/10 09:02:14;;;;;;;166.73;86.20;;;;;;;;;;5055857;28;20375;-80
2020/12/10 09:04:40;;;;;;;172.30;88.57;;;;;;;;;;5054639;28;20404;-82
2020/12/10 09:07:06;;;;;;;171.45;86.72;;;;;;;;;;5055160;28;20454;-83
2020/12/10 09:09:32;;;;;;;163.85;83.72;;;;;;;;;;5073166;28;20394;-82
2020/12/10 09:11:58;;;;;;;145.13;79.15;;;;;;;;;;5073150;28;20423;-80
2020/12/10 09:14:24;;;;;;;167.15;87.30;;;;;;;;;;5058918;28;20410;-81
2020/12/10 09:16:51;;;;;;;164.23;86.45;;;;;;;;;;5034107;28;20510;-80
2020/12/10 09:19:17;;;;;;;168.63;87.45;;;;;;;;;;5049736;28;20483;-81
2020/12/10 09:21:44;;;;;;;164.35;83.53;;;;;;;;;;5044270;28;20447;-81
2020/12/10 09:24:10;;;;;;;161.95;83.63;;;;;;;;;;5070725;28;20411;-80
2020/12/10 09:26:38;;;;;;;176.13;88.78;;;;;;;;;;5055211;28;20836;-82
2020/12/10 09:29:05;;;;;;;167.80;85.78;;;;;;;;;;5054711;28;20528;-84
2020/12/10 09:31:31;;;;;;;163.40;85.77;;;;;;;;;;5072177;28;20492;-85
2020/12/10 09:33:57;;;;;;;168.65;85.25;;;;;;;;;;5072326;28;20396;-81
2020/12/10 09:36:25;;;;;;;167.18;87.25;;;;;;;;;;5054948;28;20816;-83
2020/12/10 09:38:51;;;;;;;171.38;84.68;;;;;;;;;;5054883;28;20412;-84
2020/12/10 09:41:21;;;;;;;160.65;82.10;;;;;;;;;;5055244;28;20452;-82
2020/12/10 09:43:47;;;;;;;165.48;84.85;;;;;;;;;;5054482;28;20370;-82
2020/12/10 09:46:14;;;;;;;168.10;85.82;;;;;;;;;;5054594;28;20377;-83
2020/12/10 09:48:40;;;;;;;164.95;84.15;;;;;;;;;;5072403;28;20394;-83
2020/12/10 09:51:06;;;;;;;161.52;83.55;;;;;;;;;;5072716;28;20749;-82
2020/12/10 09:53:40;;;;;;;171.95;87.03;;;;;;;;;;5054430;28;20362;-81
2020/12/10 09:56:36;;;;;;;174.45;86.60;;;;;;;;;;5054733;28;20358;-82
2020/12/10 09:58:59;;;;;;;162.80;83.88;;;;;;;;;;5072059;28;20385;-85
2020/12/10 10:01:25;;;;;;;158.00;80.65;;;;;;;;;;5072670;28;20378;-82
2020/12/10 10:03:52;;;;;;;162.13;82.03;;;;;;;;;;5054610;28;20362;-84
2020/12/10 10:06:18;;;;;;;162.35;81.40;;;;;;;;;;5054919;28;20908;-81
2020/12/10 10:08:44;;;;;;;156.90;80.07;;;;;;;;;;5054059;28;20401;-80
2020/12/10 10:11:10;;;;;;;159.45;80.57;;;;;;;;;;5037745;28;20364;-86
2020/12/10 10:13:36;;;;;;;161.53;79.63;;;;;;;;;;5052386;28;20439;-81
2020/12/10 10:16:03;;;;;;;168.25;82.57;;;;;;;;;;5034865;28;20443;-81
2020/12/10 10:18:29;;;;;;;168.38;84.45;;;;;;;;;;5035442;28;20372;-83
2020/12/10 10:20:55;;;;;;;159.00;84.37;;;;;;;;;;5034759;28;20469;-83
2020/12/10 10:23:21;;;;;;;163.18;81.80;;;;;;;;;;5069558;28;20411;-81
2020/12/10 10:25:53;;;;;;;170.35;83.97;;;;;;;;;;5071490;28;20362;-81
2020/12/10 10:28:20;;;;;;;168.50;83.57;;;;;;;;;;5053788;28;20394;-80
2020/12/10 10:30:46;;;;;;;166.17;80.27;;;;;;;;;;5072008;28;20962;-81
2020/12/10 10:33:12;;;;;;;158.75;79.40;;;;;;;;;;5071570;28;20358;-80
2020/12/10 10:35:38;;;;;;;147.98;76.60;;;;;;;;;;5072087;28;20444;-80
2020/12/10 10:38:04;;;;;;;153.70;77.18;;;;;;;;;;5071830;28;20860;-81
2020/12/10 10:40:31;;;;;;;159.03;80.10;;;;;;;;;;5071245;28;20728;-80
2020/12/10 10:42:57;;;;;;;166.00;83.00;;;;;;;;;;5071425;28;20848;-80
2020/12/10 10:45:24;;;;;;;160.32;81.93;;;;;;;;;;5070916;28;20500;-80
2020/12/10 10:47:51;;;;;;;163.32;81.85;;;;;;;;;;5048796;28;20370;-80
2020/12/10 10:50:17;;;;;;;161.43;81.43;;;;;;;;;;5053342;28;20366;-81
2020/12/10 10:52:44;;;;;;;149.30;77.55;;;;;;;;;;5053675;28;20428;-81
2020/12/10 10:55:10;;;;;;;160.13;80.40;;;;;;;;;;5054446;28;20362;-80
2020/12/10 10:57:36;;;;;;;151.00;77.15;;;;;;;;;;5072150;28;20374;-80
2020/12/10 11:00:04;;;;;;;142.15;76.10;;;;;;;;;;5053842;28;20394;-81
2020/12/10 11:02:30;;;;;;;149.05;77.57;;;;;;;;;;5053963;28;20374;-81
2020/12/10 11:04:56;;;;;;;145.38;75.65;;;;;;;;;;5071937;28;20369;-80
2020/12/10 11:07:22;;;;;;;156.50;77.43;;;;;;;;;;5053843;28;20375;-80
2020/12/10 11:09:48;;;;;;;147.98;76.63;;;;;;;;;;5053950;28;20425;-81
2020/12/10 11:12:14;;;;;;;154.75;78.30;;;;;;;;;;5054143;28;20390;-80
2020/12/10 11:14:40;;;;;;;148.40;76.18;;;;;;;;;;5053933;28;20389;-80
2020/12/10 11:17:06;;;;;;;158.75;80.00;;;;;;;;;;5071311;28;20759;-80
2020/12/10 11:19:32;;;;;;;162.68;82.25;;;;;;;;;;5071039;28;20763;-80
2020/12/10 11:22:00;;;;;;;160.67;79.37;;;;;;;;;;5053242;28;20374;-81
2020/12/10 11:24:26;;;;;;;151.38;75.82;;;;;;;;;;5054035;28;20758;-81
2020/12/10 11:26:52;;;;;;;156.63;79.47;;;;;;;;;;5053936;28;20358;-80
2020/12/10 11:29:18;;;;;;;166.13;79.82;;;;;;;;;;5071796;28;20429;-80
2020/12/10 11:31:44;;;;;;;149.20;76.18;;;;;;;;;;5054614;28;20449;-83
2020/12/10 11:34:10;;;;;;;156.80;77.80;;;;;;;;;;5072305;28;20838;-83
2020/12/10 11:36:36;;;;;;;163.05;79.63;;;;;;;;;;5054210;28;20430;-84
2020/12/10 11:39:03;;;;;;;160.93;78.20;;;;;;;;;;5054597;28;20459;-87
2020/12/10 11:41:29;;;;;;;174.57;84.40;;;;;;;;;;5054401;28;20354;-80
2020/12/10 11:43:55;;;;;;;162.18;76.45;;;;;;;;;;5071459;28;20373;-80
2020/12/10 11:46:21;;;;;;;163.13;79.80;;;;;;;;;;5053826;28;20374;-80
2020/12/10 11:48:47;;;;;;;169.93;80.18;;;;;;;;;;5071458;28;20448;-81
2020/12/10 11:51:16;;;;;;;166.23;80.03;;;;;;;;;;5069856;28;20362;-80
2020/12/10 11:53:43;;;;;;;169.43;79.78;;;;;;;;;;5069932;28;20364;-81
2020/12/10 11:56:09;;;;;;;161.30;78.30;;;;;;;;;;5074587;28;20378;-80
2020/12/10 11:58:35;;;;;;;163.35;78.25;;;;;;;;;;5075636;28;20369;-81
2020/12/10 12:01:01;;;;;;;153.90;74.87;;;;;;;;;;5043109;28;20437;-83
2020/12/10 12:03:27;;;;;;;157.93;76.40;;;;;;;;;;5054548;28;20450;-80
2020/12/10 12:05:53;;;;;;;157.70;77.03;;;;;;;;;;5036737;28;20429;-81
2020/12/10 12:08:25;;;;;;;158.77;76.40;;;;;;;;;;5054041;28;20503;-80
2020/12/10 12:10:51;;;;;;;158.85;75.40;;;;;;;;;;5054148;28;20873;-80
2020/12/10 12:13:17;;;;;;;163.13;76.70;;;;;;;;;;5036001;28;20387;-81
2020/12/10 12:15:43;;;;;;;162.05;76.47;;;;;;;;;;5036177;28;20877;-81
2020/12/10 12:18:09;;;;;;;149.82;72.93;;;;;;;;;;5054558;28;20745;-81
2020/12/10 12:20:35;;;;;;;164.82;77.85;;;;;;;;;;5036779;28;20364;-80
2020/12/10 12:23:01;;;;;;;158.45;77.40;;;;;;;;;;5054784;28;20364;-81
2020/12/10 12:25:28;;;;;;;166.73;76.70;;;;;;;;;;5054815;28;20393;-80
2020/12/10 12:27:54;;;;;;;157.18;75.40;;;;;;;;;;5054794;28;20400;-80
2020/12/10 12:30:20;;;;;;;153.07;74.55;;;;;;;;;;5054307;28;20408;-80
2020/12/10 12:32:46;;;;;;;163.32;75.97;;;;;;;;;;5054697;28;20368;-81
2020/12/10 12:35:12;;;;;;;165.65;76.35;;;;;;;;;;5066720;28;20368;-81
2020/12/10 12:37:38;;;;;;;167.40;76.43;;;;;;;;;;5055442;28;20396;-81
2020/12/10 12:40:04;;;;;;;164.77;75.90;;;;;;;;;;5053805;28;20842;-80
2020/12/10 12:42:31;;;;;;;159.25;75.22;;;;;;;;;;5036124;28;20430;-81
2020/12/10 12:44:57;;;;;;;156.43;75.18;;;;;;;;;;5054087;28;20360;-80
2020/12/10 12:47:23;;;;;;;150.82;73.45;;;;;;;;;;5053938;28;20905;-81
2020/12/10 12:49:49;;;;;;;152.00;71.23;;;;;;;;;;5035627;28;20407;-81
2020/12/10 12:52:15;;;;;;;154.73;71.22;;;;;;;;;;5054101;28;20588;-81
2020/12/10 12:54:41;;;;;;;148.48;71.45;;;;;;;;;;5036132;28;20730;-81
2020/12/10 12:57:07;;;;;;;155.50;73.18;;;;;;;;;;5053569;28;20372;-82
2020/12/10 12:59:33;;;;;;;140.40;68.93;;;;;;;;;;5053237;28;20842;-81
2020/12/10 13:01:59;;;;;;;145.00;69.00;;;;;;;;;;5054004;28;20356;-83
2020/12/10 13:04:25;;;;;;;145.88;69.03;;;;;;;;;;5054657;28;21053;-80
2020/12/10 13:06:51;;;;;;;146.15;69.30;;;;;;;;;;5036158;28;20405;-81
2020/12/10 13:09:18;;;;;;;144.10;68.57;;;;;;;;;;5044396;28;20403;-84
2020/12/10 13:11:45;;;;;;;143.70;69.05;;;;;;;;;;5061585;28;20385;-84
2020/12/10 13:14:12;;;;;;;154.82;74.00;;;;;;;;;;5064073;28;20375;-82
2020/12/10 13:16:46;;;;;;;158.32;72.03;;;;;;;;;;5062569;28;20382;-82
2020/12/10 13:19:15;;;;;;;152.90;71.40;;;;;;;;;;5062185;28;20397;-81
2020/12/10 13:21:41;;;;;;;147.30;71.55;;;;;;;;;;5048127;28;20378;-81
2020/12/10 13:24:07;;;;;;;149.87;70.77;;;;;;;;;;5061163;28;20364;-82
2020/12/10 13:26:35;;;;;;;137.68;65.47;;;;;;;;;;5036718;28;20421;-85
2020/12/10 13:29:02;;;;;;;142.02;67.82;;;;;;;;;;5045341;28;20406;-82
2020/12/10 13:31:36;;;;;;;131.60;64.50;;;;;;;;;;5068415;28;20709;-82
2020/12/10 13:34:03;;;;;;;137.95;65.47;;;;;;;;;;5062857;28;20365;-85
2020/12/10 13:36:30;;;;;;;140.95;67.03;;;;;;;;;;5035070;28;20858;-80
2020/12/10 13:38:56;;;;;;;130.60;64.25;;;;;;;;;;5070237;28;20402;-81
2020/12/10 13:41:25;;;;;;;132.77;65.47;;;;;;;;;;5055800;28;20892;-82
2020/12/10 13:43:51;;;;;;;139.33;67.37;;;;;;;;;;5072139;28;20367;-81
2020/12/10 13:46:24;;;;;;;138.52;67.18;;;;;;;;;;5072419;28;20855;-86
2020/12/10 13:48:50;;;;;;;141.23;65.63;;;;;;;;;;5057996;28;20391;-83
2020/12/10 13:51:16;;;;;;;148.97;66.70;;;;;;;;;;5051708;28;20367;-83
2020/12/10 13:53:43;;;;;;;143.15;66.38;;;;;;;;;;5065034;28;20370;-79
2020/12/10 13:56:11;;;;;;;143.65;66.53;;;;;;;;;;5060645;28;20399;-83
2020/12/10 13:58:37;;;;;;;137.15;63.97;;;;;;;;;;5064394;28;20366;-81
2020/12/10 14:01:05;;;;;;;137.48;64.15;;;;;;;;;;5039084;28;20912;-81
2020/12/10 14:03:31;;;;;;;136.82;62.67;;;;;;;;;;5056739;28;20429;-83
2020/12/10 14:06:00;;;;;;;139.73;64.70;;;;;;;;;;5062905;28;20393;-83
2020/12/10 14:08:27;;;;;;;128.48;63.00;;;;;;;;;;5067163;28;20758;-82